createdAt,value
2018-06-18T00:01:11.503Z,15.90
2018-06-18T00:03:40.399Z,16.00
2018-06-18T00:06:08.842Z,16.00
2018-06-18T00:08:37.317Z,16.10
2018-06-18T00:11:05.736Z,16.00
2018-06-18T00:13:34.171Z,16.00
2018-06-18T00:16:02.589Z,16.00
2018-06-18T00:18:31.094Z,16.00
2018-06-18T00:20:59.510Z,15.90
2018-06-18T00:23:27.941Z,16.00
2018-06-18T00:25:56.358Z,15.90
2018-06-18T00:28:25.146Z,15.90
2018-06-18T00:30:53.817Z,16.00
2018-06-18T00:33:22.286Z,16.00
2018-06-18T00:35:50.756Z,16.00
2018-06-18T00:38:19.208Z,16.00
2018-06-18T00:40:47.662Z,16.00
2018-06-18T00:43:16.110Z,16.00
2018-06-18T00:45:44.599Z,16.00
2018-06-18T00:48:13.059Z,16.00
2018-06-18T00:50:41.504Z,16.00
2018-06-18T00:53:09.967Z,16.00
2018-06-18T00:55:49.711Z,16.00
2018-06-18T00:58:18.133Z,16.00
2018-06-18T01:00:46.607Z,15.90
2018-06-18T01:03:15.070Z,15.90
2018-06-18T01:05:43.526Z,15.80
2018-06-18T01:08:11.951Z,15.80
2018-06-18T01:10:40.380Z,15.90
2018-06-18T01:13:08.842Z,15.90
2018-06-18T01:15:37.280Z,15.90
2018-06-18T01:18:05.742Z,15.90
2018-06-18T01:20:34.313Z,16.00
2018-06-18T01:24:25.802Z,16.00
2018-06-18T01:26:54.225Z,15.90
2018-06-18T01:29:22.657Z,15.90
2018-06-18T01:31:51.111Z,15.90
2018-06-18T01:34:24.139Z,15.90
2018-06-18T01:36:52.719Z,15.90
2018-06-18T01:39:21.302Z,15.90
2018-06-18T01:41:50.021Z,15.80
2018-06-18T01:44:18.535Z,15.90
2018-06-18T01:46:47.061Z,15.90
2018-06-18T01:49:15.579Z,15.90
2018-06-18T01:51:44.345Z,15.90
2018-06-18T01:54:12.860Z,15.90
2018-06-18T01:56:41.353Z,15.90
2018-06-18T01:59:09.784Z,15.80
2018-06-18T02:01:38.217Z,15.90
2018-06-18T02:04:06.666Z,15.90
2018-06-18T02:06:35.124Z,15.70
2018-06-18T02:09:04.863Z,15.70
2018-06-18T02:11:33.285Z,15.80
2018-06-18T02:14:01.722Z,15.90
2018-06-18T02:16:30.186Z,15.90
2018-06-18T02:18:58.641Z,15.90
2018-06-18T02:21:27.095Z,15.90
2018-06-18T02:23:55.523Z,15.80
2018-06-18T02:26:23.975Z,15.80
2018-06-18T02:28:57.772Z,15.80
2018-06-18T02:32:29.121Z,15.80
2018-06-18T02:35:02.781Z,15.60
2018-06-18T02:37:36.457Z,15.60
2018-06-18T02:40:10.308Z,15.60
2018-06-18T02:42:38.757Z,15.60
2018-06-18T02:45:07.219Z,15.70
2018-06-18T02:47:35.658Z,15.60
2018-06-18T02:50:04.089Z,15.70
2018-06-18T02:52:32.537Z,15.70
2018-06-18T02:55:00.993Z,15.70
2018-06-18T02:57:29.921Z,15.70
2018-06-18T02:59:58.389Z,15.60
2018-06-18T03:02:26.839Z,15.70
2018-06-18T03:04:55.280Z,15.60
2018-06-18T03:09:52.010Z,15.60
2018-06-18T03:12:20.442Z,15.60
2018-06-18T03:14:48.966Z,15.60
2018-06-18T03:17:17.426Z,15.60
2018-06-18T03:19:51.133Z,15.60
2018-06-18T03:22:24.825Z,15.60
2018-06-18T03:24:58.708Z,15.60
2018-06-18T03:27:32.469Z,15.60
2018-06-18T03:30:00.933Z,15.60
2018-06-18T03:32:29.397Z,15.60
2018-06-18T03:34:57.941Z,15.60
2018-06-18T03:37:26.438Z,15.50
2018-06-18T03:39:55.323Z,15.60
2018-06-18T03:42:23.789Z,15.60
2018-06-18T03:45:25.350Z,15.60
2018-06-18T03:47:54.493Z,15.70
2018-06-18T03:50:22.952Z,15.70
2018-06-18T03:52:51.415Z,15.70
2018-06-18T03:57:57.000Z,15.70
2018-06-18T04:00:27.361Z,15.70
2018-06-18T04:03:03.528Z,15.70
2018-06-18T04:05:37.345Z,15.60
2018-06-18T04:08:12.553Z,15.60
2018-06-18T04:10:46.310Z,15.60
2018-06-18T04:13:14.767Z,15.60
2018-06-18T04:15:43.266Z,15.60
2018-06-18T04:18:11.731Z,15.60
2018-06-18T04:20:46.058Z,15.70
2018-06-18T04:23:14.515Z,15.70
2018-06-18T04:25:43.081Z,15.70
2018-06-18T04:28:11.840Z,15.70
2018-06-18T04:30:40.646Z,15.70
2018-06-18T04:33:09.645Z,15.70
2018-06-18T04:35:38.106Z,15.70
2018-06-18T04:38:06.575Z,15.70
2018-06-18T04:40:35.041Z,15.60
2018-06-18T04:43:08.882Z,15.60
2018-06-18T04:45:44.829Z,15.60
2018-06-18T04:48:18.609Z,15.60
2018-06-18T04:50:52.380Z,15.60
2018-06-18T04:53:20.892Z,15.70
2018-06-18T04:55:49.332Z,15.70
2018-06-18T04:58:17.745Z,15.70
2018-06-18T05:01:03.844Z,15.70
2018-06-18T05:06:00.443Z,15.80
2018-06-18T05:10:38.920Z,15.90
2018-06-18T05:13:07.400Z,15.90
2018-06-18T05:15:38.358Z,15.80
2018-06-18T05:18:06.943Z,15.90
2018-06-18T05:20:35.572Z,16.00
2018-06-18T05:23:08.282Z,16.00
2018-06-18T05:25:36.752Z,16.00
2018-06-18T05:28:05.566Z,15.90
2018-06-18T05:30:34.039Z,16.00
2018-06-18T05:33:02.466Z,16.10
2018-06-18T05:35:30.930Z,16.10
2018-06-18T05:38:04.972Z,16.10
2018-06-18T05:40:33.416Z,16.30
2018-06-18T05:43:01.829Z,16.40
2018-06-18T05:45:30.345Z,16.40
2018-06-18T05:47:58.775Z,16.40
2018-06-18T05:50:27.317Z,16.40
2018-06-18T05:52:55.763Z,16.40
2018-06-18T05:55:24.260Z,16.50
2018-06-18T05:57:52.765Z,16.50
2018-06-18T06:00:21.238Z,16.60
2018-06-18T06:02:49.780Z,16.80
2018-06-18T06:05:18.252Z,16.90
2018-06-18T06:07:46.744Z,16.90
2018-06-18T06:10:15.233Z,16.90
2018-06-18T06:12:43.724Z,17.00
2018-06-18T06:15:12.177Z,17.10
2018-06-18T06:17:40.682Z,16.90
2018-06-18T06:20:09.664Z,17.00
2018-06-18T06:22:38.257Z,17.20
2018-06-18T06:25:06.789Z,17.20
2018-06-18T06:27:35.495Z,17.20
2018-06-18T06:30:04.369Z,17.10
2018-06-18T06:32:32.866Z,17.20
2018-06-18T06:35:08.813Z,17.20
2018-06-18T06:37:37.287Z,17.30
2018-06-18T06:40:05.845Z,17.40
2018-06-18T06:42:34.548Z,17.50
2018-06-18T06:45:03.041Z,17.70
2018-06-18T06:47:31.710Z,18.00
2018-06-18T06:50:00.514Z,18.20
2018-06-18T06:52:29.593Z,18.50
2018-06-18T06:54:58.241Z,18.70
2018-06-18T06:57:26.900Z,18.70
2018-06-18T06:59:55.591Z,19.00
2018-06-18T07:02:24.110Z,19.30
2018-06-18T07:04:52.779Z,19.40
2018-06-18T07:07:22.211Z,19.50
2018-06-18T07:09:50.868Z,19.50
2018-06-18T07:12:19.635Z,19.40
2018-06-18T07:14:48.251Z,19.10
2018-06-18T07:17:16.905Z,19.00
2018-06-18T07:19:45.457Z,18.90
2018-06-18T07:24:42.343Z,18.90
2018-06-18T07:27:11.059Z,18.70
2018-06-18T07:29:39.583Z,18.60
2018-06-18T07:32:08.070Z,18.60
2018-06-18T07:34:36.618Z,18.50
2018-06-18T07:37:05.164Z,18.50
2018-06-18T07:39:33.680Z,18.40
2018-06-18T07:42:02.301Z,18.40
2018-06-18T07:44:30.801Z,18.40
2018-06-18T07:46:59.337Z,18.30
2018-06-18T07:49:28.182Z,18.30
2018-06-18T07:51:56.837Z,18.30
2018-06-18T07:54:25.356Z,18.20
2018-06-18T07:56:53.817Z,18.30
2018-06-18T07:59:23.163Z,18.40
2018-06-18T08:01:51.721Z,18.50
2018-06-18T08:04:20.266Z,18.70
2018-06-18T08:06:48.728Z,19.00
2018-06-18T08:09:17.223Z,19.30
2018-06-18T08:11:45.714Z,19.70
2018-06-18T08:14:14.249Z,20.00
2018-06-18T08:16:42.701Z,20.60
2018-06-18T08:19:11.182Z,20.90
2018-06-18T08:21:39.735Z,21.40
2018-06-18T08:24:08.218Z,21.60
2018-06-18T08:26:36.791Z,21.60
2018-06-18T08:29:05.330Z,21.90
2018-06-18T08:31:33.821Z,22.20
2018-06-18T08:34:02.277Z,22.60
2018-06-18T08:36:30.782Z,22.90
2018-06-18T08:38:59.228Z,22.80
2018-06-18T08:41:27.705Z,23.10
2018-06-18T08:43:56.139Z,22.80
2018-06-18T08:46:24.605Z,22.70
2018-06-18T08:48:58.188Z,23.30
2018-06-18T08:51:31.979Z,23.70
2018-06-18T08:54:05.701Z,23.80
2018-06-18T08:56:39.316Z,24.00
2018-06-18T08:59:17.448Z,23.60
2018-06-18T09:01:46.559Z,23.50
2018-06-18T09:04:22.238Z,23.50
2018-06-18T09:06:50.842Z,24.00
2018-06-18T09:09:19.279Z,24.50
2018-06-18T09:11:47.751Z,24.40
2018-06-18T09:14:16.532Z,25.60
2018-06-18T09:16:44.969Z,26.50
2018-06-18T09:19:15.857Z,26.10
2018-06-18T09:21:44.328Z,26.00
2018-06-18T09:24:12.807Z,27.40
2018-06-18T09:26:41.315Z,27.60
2018-06-18T09:29:09.783Z,28.10
2018-06-18T09:31:42.533Z,28.70
2018-06-18T09:34:10.998Z,29.00
2018-06-18T09:36:39.479Z,29.40
2018-06-18T09:39:08.124Z,29.90
2018-06-18T09:41:36.617Z,29.60
2018-06-18T09:44:05.077Z,29.50
2018-06-18T09:46:33.529Z,29.30
2018-06-18T09:49:07.289Z,29.10
2018-06-18T09:51:41.038Z,28.60
2018-06-18T09:54:14.756Z,28.00
2018-06-18T09:56:48.617Z,27.50
2018-06-18T09:59:22.336Z,27.10
2018-06-18T10:01:50.754Z,26.60
2018-06-18T10:04:19.193Z,26.30
2018-06-18T10:06:47.661Z,25.90
2018-06-18T10:09:16.200Z,25.50
2018-06-18T10:11:44.716Z,25.50
2018-06-18T10:14:13.166Z,25.40
2018-06-18T10:16:41.663Z,24.90
2018-06-18T10:19:10.122Z,24.80
2018-06-18T10:21:38.624Z,24.50
2018-06-18T10:24:07.158Z,24.40
2018-06-18T10:26:35.597Z,24.00
2018-06-18T10:29:04.081Z,23.80
2018-06-18T10:31:32.688Z,24.00
2018-06-18T10:34:06.264Z,24.10
2018-06-18T10:37:43.808Z,24.30
2018-06-18T10:40:17.445Z,24.40
2018-06-18T10:42:51.271Z,24.70
2018-06-18T10:45:19.767Z,25.20
2018-06-18T10:47:48.225Z,24.90
2018-06-18T10:50:16.696Z,25.30
2018-06-18T10:52:45.169Z,25.50
2018-06-18T10:55:13.692Z,26.00
2018-06-18T10:57:42.528Z,26.10
2018-06-18T11:00:13.863Z,26.50
2018-06-18T11:02:42.323Z,25.80
2018-06-18T11:05:10.869Z,25.70
2018-06-18T11:07:39.394Z,25.80
2018-06-18T11:10:07.974Z,25.80
2018-06-18T11:12:36.450Z,25.40
2018-06-18T11:15:05.039Z,25.70
2018-06-18T11:17:38.902Z,25.70
2018-06-18T11:20:12.753Z,26.20
2018-06-18T11:22:46.481Z,26.00
2018-06-18T11:25:20.384Z,26.10
2018-06-18T11:27:48.939Z,25.90
2018-06-18T11:30:17.451Z,25.70
2018-06-18T11:32:45.968Z,26.20
2018-06-18T11:35:14.691Z,26.20
2018-06-18T11:37:43.226Z,26.10
2018-06-18T11:40:11.975Z,26.20
2018-06-18T11:42:40.574Z,26.50
2018-06-18T11:45:09.070Z,26.00
2018-06-18T11:50:06.577Z,26.50
2018-06-18T11:52:35.532Z,26.50
2018-06-18T11:55:05.196Z,26.70
2018-06-18T11:57:34.023Z,26.50
2018-06-18T12:00:08.003Z,25.60
2018-06-18T12:02:41.764Z,26.30
2018-06-18T12:06:19.574Z,26.50
2018-06-18T12:08:53.443Z,26.60
2018-06-18T12:11:22.005Z,27.00
2018-06-18T12:13:50.755Z,27.30
2018-06-18T12:16:19.294Z,27.40
2018-06-18T12:18:47.901Z,27.30
2018-06-18T12:21:18.643Z,27.40
2018-06-18T12:23:47.499Z,27.60
2018-06-18T12:26:16.225Z,27.50
2018-06-18T12:28:44.743Z,27.40
2018-06-18T12:31:13.454Z,27.40
2018-06-18T12:33:42.010Z,27.90
2018-06-18T12:36:10.839Z,27.80
2018-06-18T12:38:39.909Z,27.80
2018-06-18T12:41:09.305Z,28.20
2018-06-18T12:43:40.286Z,28.60
2018-06-18T12:48:49.256Z,28.30
2018-06-18T12:51:23.252Z,28.10
2018-06-18T12:53:56.973Z,28.20
2018-06-18T12:56:30.682Z,27.70
2018-06-18T12:58:59.389Z,27.90
2018-06-18T13:01:30.310Z,26.50
2018-06-18T13:03:58.933Z,26.70
2018-06-18T13:06:27.531Z,27.30
2018-06-18T13:08:56.146Z,27.60
2018-06-18T13:11:24.824Z,27.70
2018-06-18T13:13:53.377Z,27.80
2018-06-18T13:18:50.021Z,27.80
2018-06-18T13:21:18.923Z,27.50
2018-06-18T13:23:47.391Z,27.40
2018-06-18T13:26:15.878Z,27.30
2018-06-18T13:28:44.533Z,26.80
2018-06-18T13:31:12.988Z,26.80
2018-06-18T13:33:41.605Z,27.10
2018-06-18T13:36:10.094Z,27.20
2018-06-18T13:38:43.890Z,27.50
2018-06-18T13:41:17.509Z,27.40
2018-06-18T13:43:51.380Z,27.40
2018-06-18T13:46:25.276Z,27.80
2018-06-18T13:48:55.767Z,27.90
2018-06-18T13:51:25.806Z,27.90
2018-06-18T13:53:54.934Z,27.50
2018-06-18T13:56:23.937Z,27.70
2018-06-18T13:58:52.959Z,27.60
2018-06-18T14:01:22.705Z,27.70
2018-06-18T14:03:51.444Z,28.00
2018-06-18T14:06:19.997Z,28.00
2018-06-18T14:08:49.071Z,27.80
2018-06-18T14:11:19.088Z,28.00
2018-06-18T14:13:47.905Z,27.70
2018-06-18T14:16:16.459Z,27.40
2018-06-18T14:18:45.283Z,26.90
2018-06-18T14:21:25.441Z,26.20
2018-06-18T14:23:54.160Z,26.80
2018-06-18T14:26:22.669Z,26.60
2018-06-18T14:28:51.226Z,26.10
2018-06-18T14:31:24.929Z,26.10
2018-06-18T14:33:59.058Z,25.90
2018-06-18T14:36:34.344Z,26.00
2018-06-18T14:39:08.283Z,25.90
2018-06-18T14:41:36.866Z,26.10
2018-06-18T14:44:05.573Z,25.70
2018-06-18T14:46:37.498Z,25.30
2018-06-18T14:49:06.073Z,25.40
2018-06-18T14:51:34.684Z,25.10
2018-06-18T14:54:03.303Z,25.00
2018-06-18T14:56:34.746Z,25.10
2018-06-18T14:59:09.666Z,25.20
2018-06-18T15:01:38.441Z,24.90
2018-06-18T15:04:07.056Z,24.70
2018-06-18T15:06:35.462Z,24.70
2018-06-18T15:09:05.918Z,24.90
2018-06-18T15:11:34.179Z,24.20
2018-06-18T15:14:02.694Z,24.10
2018-06-18T15:16:32.033Z,23.60
2018-06-18T15:19:01.858Z,24.00
2018-06-18T15:21:32.647Z,23.60
2018-06-18T15:24:03.348Z,23.90
2018-06-18T15:26:31.818Z,24.10
2018-06-18T15:29:00.286Z,23.90
2018-06-18T15:31:28.753Z,24.00
2018-06-18T15:33:57.196Z,24.00
2018-06-18T15:36:25.652Z,24.30
2018-06-18T15:38:54.102Z,24.20
2018-06-18T15:41:22.545Z,24.60
2018-06-18T15:43:51.054Z,24.70
2018-06-18T15:46:19.543Z,24.50
2018-06-18T15:48:48.059Z,24.70
2018-06-18T15:51:16.519Z,24.60
2018-06-18T15:53:44.991Z,24.60
2018-06-18T15:56:13.450Z,24.50
2018-06-18T15:58:41.961Z,24.20
2018-06-18T16:01:10.438Z,24.00
2018-06-18T16:03:39.028Z,24.00
2018-06-18T16:06:10.540Z,24.10
2018-06-18T16:08:39.522Z,23.70
2018-06-18T16:11:07.982Z,23.80
2018-06-18T16:13:36.442Z,23.90
2018-06-18T16:16:04.879Z,23.60
2018-06-18T16:18:33.337Z,23.80
2018-06-18T16:21:01.801Z,23.40
2018-06-18T16:23:30.233Z,23.70
2018-06-18T16:25:58.682Z,23.50
2018-06-18T16:28:27.094Z,23.10
2018-06-18T16:30:55.536Z,23.20
2018-06-18T16:33:23.948Z,23.00
2018-06-18T16:35:52.422Z,23.20
2018-06-18T16:38:21.081Z,23.20
2018-06-18T16:40:49.565Z,23.20
2018-06-18T16:43:18.080Z,23.30
2018-06-18T16:45:46.560Z,23.20
2018-06-18T16:48:14.987Z,23.40
2018-06-18T16:50:43.553Z,23.30
2018-06-18T16:53:12.003Z,23.30
2018-06-18T16:55:40.451Z,23.10
2018-06-18T16:58:08.906Z,23.10
2018-06-18T17:00:37.384Z,23.20
2018-06-18T17:03:05.861Z,23.20
2018-06-18T17:05:34.292Z,22.80
2018-06-18T17:08:02.714Z,22.80
2018-06-18T17:10:31.343Z,22.80
2018-06-18T17:12:59.755Z,22.60
2018-06-18T17:15:28.258Z,22.60
2018-06-18T17:17:56.686Z,22.40
2018-06-18T17:20:25.302Z,22.40
2018-06-18T17:22:53.737Z,22.60
2018-06-18T17:25:22.213Z,22.20
2018-06-18T17:27:50.693Z,22.20
2018-06-18T17:30:19.163Z,22.20
2018-06-18T17:32:47.629Z,22.20
2018-06-18T17:35:16.124Z,22.20
2018-06-18T17:37:44.592Z,22.40
2018-06-18T17:40:13.049Z,22.40
2018-06-18T17:42:41.612Z,22.50
2018-06-18T17:45:10.094Z,22.50
2018-06-18T17:47:38.607Z,22.50
2018-06-18T17:50:07.092Z,22.40
2018-06-18T17:52:35.574Z,22.30
2018-06-18T17:55:04.155Z,22.30
2018-06-18T17:57:32.605Z,22.30
2018-06-18T18:00:01.054Z,22.10
2018-06-18T18:02:29.520Z,22.10
2018-06-18T18:04:58.456Z,22.10
2018-06-18T18:07:28.163Z,22.00
2018-06-18T18:09:56.639Z,21.80
2018-06-18T18:14:53.209Z,21.80
2018-06-18T18:17:21.634Z,21.70
2018-06-18T18:19:50.137Z,21.50
2018-06-18T18:22:18.606Z,21.50
2018-06-18T18:24:47.023Z,21.30
2018-06-18T18:27:15.518Z,21.40
2018-06-18T18:29:44.015Z,21.30
2018-06-18T18:32:12.467Z,21.20
2018-06-18T18:34:40.894Z,21.10
2018-06-18T18:37:09.362Z,21.10
2018-06-18T18:39:37.857Z,21.10
2018-06-18T18:42:06.569Z,20.90
2018-06-18T18:47:03.141Z,20.90
2018-06-18T18:49:31.625Z,20.80
2018-06-18T18:52:00.091Z,20.80
2018-06-18T18:55:02.577Z,20.80
2018-06-18T19:01:03.320Z,20.50
2018-06-18T19:03:31.765Z,20.50
2018-06-18T19:06:00.216Z,20.40
2018-06-18T19:08:31.549Z,20.30
2018-06-18T19:11:01.950Z,20.30
2018-06-18T19:13:34.901Z,20.20
2018-06-18T19:16:03.397Z,20.20
2018-06-18T19:18:32.736Z,20.20
2018-06-18T19:21:07.236Z,20.10
2018-06-18T19:23:35.686Z,20.00
2018-06-18T19:26:04.132Z,19.90
2018-06-18T19:28:32.865Z,19.90
2018-06-18T19:31:04.842Z,19.80
2018-06-18T19:33:37.239Z,19.70
2018-06-18T19:36:06.716Z,19.70
2018-06-18T19:38:35.848Z,19.60
2018-06-18T19:41:04.497Z,19.50
2018-06-18T19:43:32.945Z,19.40
2018-06-18T19:46:02.750Z,19.40
2018-06-18T19:49:38.142Z,19.30
2018-06-18T19:52:06.584Z,19.20
2018-06-18T19:54:38.189Z,19.10
2018-06-18T19:57:06.661Z,19.10
2018-06-18T19:59:35.081Z,19.00
2018-06-18T20:02:03.562Z,18.90
2018-06-18T20:04:32.020Z,18.90
2018-06-18T20:07:00.518Z,18.80
2018-06-18T20:09:28.912Z,18.70
2018-06-18T20:11:57.365Z,18.60
2018-06-18T20:14:26.372Z,18.50
2018-06-18T20:16:54.839Z,18.50
2018-06-18T20:19:23.268Z,18.50
2018-06-18T20:21:51.766Z,18.40
2018-06-18T20:24:20.204Z,18.40
2018-06-18T20:26:48.660Z,18.30
2018-06-18T20:29:17.137Z,18.30
2018-06-18T20:31:45.974Z,18.20
2018-06-18T20:34:14.441Z,18.10
2018-06-18T20:36:43.034Z,18.10
2018-06-18T20:39:13.012Z,18.00
2018-06-18T20:41:41.645Z,18.00
2018-06-18T20:44:21.674Z,17.90
2018-06-18T20:46:50.109Z,17.80
2018-06-18T20:49:18.538Z,17.80
2018-06-18T20:51:47.358Z,17.80
2018-06-18T20:54:15.806Z,17.70
2018-06-18T20:56:44.228Z,17.70
2018-06-18T20:59:13.826Z,17.70
2018-06-18T21:01:42.304Z,17.70
2018-06-18T21:04:11.740Z,17.60
2018-06-18T21:06:40.202Z,17.60
2018-06-18T21:09:10.943Z,17.60
2018-06-18T21:11:39.867Z,17.60
2018-06-18T21:14:09.530Z,17.50
2018-06-18T21:16:39.746Z,17.50
2018-06-18T21:19:08.227Z,17.50
2018-06-18T21:21:36.644Z,17.40
2018-06-18T21:24:05.211Z,17.40
2018-06-18T21:26:33.648Z,17.40
2018-06-18T21:29:02.126Z,17.40
2018-06-18T21:31:30.585Z,17.30
2018-06-18T21:33:59.041Z,17.30
2018-06-18T21:36:27.492Z,17.20
2018-06-18T21:38:55.944Z,17.20
2018-06-18T21:41:24.380Z,17.10
2018-06-18T21:46:21.377Z,17.00
2018-06-18T21:48:49.892Z,16.90
2018-06-18T21:51:18.352Z,16.90
2018-06-18T21:53:46.777Z,16.90
2018-06-18T21:56:16.104Z,16.90
2018-06-18T21:58:44.512Z,16.80
2018-06-18T22:01:12.936Z,16.80
2018-06-18T22:03:41.711Z,16.80
2018-06-18T22:06:10.146Z,16.70
2018-06-18T22:08:38.579Z,16.70
2018-06-18T22:11:06.992Z,16.60
2018-06-18T22:13:35.427Z,16.60
2018-06-18T22:16:03.884Z,16.50
2018-06-18T22:18:32.385Z,16.50
2018-06-18T22:21:00.810Z,16.40
2018-06-18T22:23:29.240Z,16.40
2018-06-18T22:25:57.672Z,16.30
2018-06-18T22:28:29.431Z,16.30
2018-06-18T22:30:57.864Z,16.20
2018-06-18T22:33:26.265Z,16.20
2018-06-18T22:35:54.913Z,16.10
2018-06-18T22:38:23.343Z,16.10
2018-06-18T22:40:51.807Z,16.00
2018-06-18T22:43:20.236Z,16.00
2018-06-18T22:45:48.734Z,15.90
2018-06-18T22:48:17.728Z,15.90
2018-06-18T22:50:46.172Z,15.80
2018-06-18T22:53:14.949Z,15.70
2018-06-18T22:55:43.372Z,15.70
2018-06-18T22:58:11.982Z,15.70
2018-06-18T23:00:40.383Z,15.60
2018-06-18T23:03:08.858Z,15.60
2018-06-18T23:05:37.271Z,15.60
2018-06-18T23:08:06.696Z,15.60
2018-06-18T23:10:35.192Z,15.60
2018-06-18T23:13:03.620Z,15.50
2018-06-18T23:15:32.076Z,15.40
2018-06-18T23:18:00.517Z,15.40
2018-06-18T23:20:28.963Z,15.40
2018-06-18T23:22:57.442Z,15.40
2018-06-18T23:25:25.885Z,15.20
2018-06-18T23:27:54.337Z,15.20
2018-06-18T23:30:22.809Z,15.20
2018-06-18T23:32:51.242Z,15.20
2018-06-18T23:35:19.697Z,15.20
2018-06-18T23:37:48.100Z,15.30
2018-06-18T23:40:16.521Z,15.30
2018-06-18T23:42:44.945Z,15.30
2018-06-18T23:45:13.413Z,15.40
2018-06-18T23:47:41.870Z,15.40
2018-06-18T23:50:10.302Z,15.40
2018-06-18T23:52:38.756Z,15.40
2018-06-18T23:55:07.198Z,15.40
2018-06-18T23:57:35.614Z,15.50
